DLH92J LPPR-EDDF
Flight info
| Callsign | DLH92J |
|---|---|
| Flight time | 2h 12m |
| Altitude | 24000 |
| Route | TURON P600 ASDEB/N0443F340 DCT LOTEE/N0445F360 DCT AZFIC/N0442F340 UN741 ERIGA/N0445F360 UN741 MOKOR UN873 OBATO UM163 TSU UN858 OQQAL DCT RANUX/N0445F350 DCT VALEK DCT LIPNI DCT LIMGO Z111 TUTOV/N0390F230 Z111 RAMOB IMCOM1D |
| Aircraft | A321/M-SDE3FGHIRWY/LB1 |
Departure
| Time | 2026-04-15 08:25 |
|---|---|
| Airport | Francisco de Sá Carneiro Airport (LPPR) |
Arrival
| Time | 2026-04-15 10:37 |
|---|---|
| Airport | Frankfurt Main Airport (EDDF) |
| Time | Latitude | Longitude | Altitude | Speed | Heading |
|---|---|---|---|---|---|
| 2026-04-15 07:45 | 41.23687 | -8.67253 | 245 ft | 0 kts | 78° |
| 2026-04-15 08:14 | 41.23683 | -8.67276 | 245 ft | 4 kts | 78° |
| 2026-04-15 08:14 | 41.23678 | -8.67308 | 244 ft | 4 kts | 75° |
| 2026-04-15 08:14 | 41.23667 | -8.67334 | 242 ft | 4 kts | 16° |
| 2026-04-15 08:14 | 41.23643 | -8.67334 | 242 ft | 2 kts | 348° |
| 2026-04-15 08:15 | 41.23638 | -8.67333 | 242 ft | 0 kts | 348° |
| 2026-04-15 08:18 | 41.23644 | -8.67334 | 242 ft | 4 kts | 348° |
| 2026-04-15 08:18 | 41.23683 | -8.67346 | 242 ft | 7 kts | 341° |
| 2026-04-15 08:19 | 41.23723 | -8.67398 | 240 ft | 10 kts | 308° |
| 2026-04-15 08:19 | 41.23782 | -8.67464 | 239 ft | 12 kts | 343° |
| 2026-04-15 08:19 | 41.23868 | -8.67487 | 239 ft | 13 kts | 349° |
| 2026-04-15 08:19 | 41.23963 | -8.67512 | 238 ft | 15 kts | 349° |
| 2026-04-15 08:20 | 41.24068 | -8.67539 | 238 ft | 16 kts | 349° |
| 2026-04-15 08:20 | 41.24174 | -8.67567 | 238 ft | 12 kts | 349° |
| 2026-04-15 08:20 | 41.24251 | -8.67616 | 239 ft | 14 kts | 313° |
| 2026-04-15 08:20 | 41.24337 | -8.67714 | 229 ft | 19 kts | 343° |
| 2026-04-15 08:21 | 41.24476 | -8.67753 | 221 ft | 20 kts | 348° |
| 2026-04-15 08:21 | 41.24622 | -8.67790 | 213 ft | 21 kts | 349° |
| 2026-04-15 08:21 | 41.24758 | -8.67829 | 206 ft | 20 kts | 343° |
| 2026-04-15 08:21 | 41.24898 | -8.67916 | 209 ft | 25 kts | 343° |
| 2026-04-15 08:22 | 41.25032 | -8.67953 | 202 ft | 21 kts | 349° |
| 2026-04-15 08:22 | 41.25181 | -8.67992 | 193 ft | 24 kts | 349° |
| 2026-04-15 08:22 | 41.25344 | -8.68035 | 179 ft | 25 kts | 348° |
| 2026-04-15 08:22 | 41.25488 | -8.68072 | 175 ft | 14 kts | 349° |
| 2026-04-15 08:23 | 41.25564 | -8.68092 | 172 ft | 12 kts | 349° |
| 2026-04-15 08:23 | 41.25642 | -8.68113 | 170 ft | 9 kts | 342° |
| 2026-04-15 08:23 | 41.25679 | -8.68179 | 170 ft | 10 kts | 277° |
| 2026-04-15 08:23 | 41.25666 | -8.68275 | 170 ft | 9 kts | 258° |
| 2026-04-15 08:24 | 41.25651 | -8.68329 | 171 ft | 6 kts | 228° |
| 2026-04-15 08:24 | 41.25568 | -8.68326 | 173 ft | 19 kts | 169° |
| 2026-04-15 08:24 | 41.25272 | -8.68247 | 181 ft | 77 kts | 168° |
| 2026-04-15 08:24 | 41.24529 | -8.68053 | 207 ft | 138 kts | 168° |
| 2026-04-15 08:25 | 41.23494 | -8.67777 | 657 ft | 150 kts | 168° |
| 2026-04-15 08:25 | 41.22468 | -8.67499 | 1371 ft | 153 kts | 168° |
| 2026-04-15 08:25 | 41.21356 | -8.67206 | 1729 ft | 173 kts | 169° |
| 2026-04-15 08:25 | 41.20124 | -8.66880 | 2008 ft | 193 kts | 169° |
| 2026-04-15 08:26 | 41.18726 | -8.66519 | 2187 ft | 216 kts | 169° |
| 2026-04-15 08:26 | 41.17166 | -8.66110 | 2398 ft | 238 kts | 167° |
| 2026-04-15 08:26 | 41.15640 | -8.65076 | 2768 ft | 258 kts | 137° |
| 2026-04-15 08:26 | 41.14678 | -8.63048 | 3402 ft | 266 kts | 105° |
| 2026-04-15 08:27 | 41.14665 | -8.60635 | 4057 ft | 270 kts | 71° |
| 2026-04-15 08:27 | 41.15650 | -8.58550 | 4765 ft | 270 kts | 38° |
| 2026-04-15 08:27 | 41.17314 | -8.57496 | 5463 ft | 268 kts | 5° |
| 2026-04-15 08:27 | 41.19183 | -8.57379 | 6104 ft | 271 kts | 358° |
| 2026-04-15 08:28 | 41.21092 | -8.57361 | 6770 ft | 276 kts | 357° |
| 2026-04-15 08:28 | 41.23024 | -8.57355 | 7387 ft | 280 kts | 356° |
| 2026-04-15 08:28 | 41.24986 | -8.57350 | 8036 ft | 283 kts | 356° |
| 2026-04-15 08:28 | 41.26963 | -8.57338 | 8706 ft | 286 kts | 356° |
| 2026-04-15 08:29 | 41.28966 | -8.57319 | 9358 ft | 289 kts | 356° |
| 2026-04-15 08:29 | 41.30971 | -8.57296 | 9994 ft | 293 kts | 356° |
| 2026-04-15 08:29 | 41.33039 | -8.57270 | 10513 ft | 302 kts | 356° |
| 2026-04-15 08:29 | 41.35221 | -8.57249 | 10639 ft | 323 kts | 356° |
| 2026-04-15 08:30 | 41.37548 | -8.57230 | 10763 ft | 343 kts | 356° |
| 2026-04-15 08:30 | 41.39946 | -8.57206 | 11096 ft | 353 kts | 356° |
| 2026-04-15 08:30 | 41.42417 | -8.57174 | 11632 ft | 356 kts | 356° |
| 2026-04-15 08:30 | 41.44909 | -8.57136 | 12219 ft | 359 kts | 356° |
| 2026-04-15 08:31 | 41.47424 | -8.57098 | 12799 ft | 361 kts | 355° |
| 2026-04-15 08:31 | 41.49918 | -8.57062 | 13369 ft | 364 kts | 355° |
| 2026-04-15 08:31 | 41.52462 | -8.57026 | 13963 ft | 366 kts | 355° |
| 2026-04-15 08:31 | 41.55025 | -8.56992 | 14506 ft | 369 kts | 355° |
| 2026-04-15 08:32 | 41.57602 | -8.56960 | 15014 ft | 371 kts | 355° |
| 2026-04-15 08:32 | 41.60194 | -8.56925 | 15525 ft | 375 kts | 355° |
| 2026-04-15 08:32 | 41.62822 | -8.56888 | 16012 ft | 377 kts | 355° |
| 2026-04-15 08:32 | 41.65459 | -8.56852 | 16499 ft | 380 kts | 355° |
| 2026-04-15 08:33 | 41.68088 | -8.56820 | 16986 ft | 384 kts | 354° |
| 2026-04-15 08:33 | 41.70790 | -8.56792 | 17433 ft | 388 kts | 354° |
| 2026-04-15 08:33 | 41.73518 | -8.56764 | 17899 ft | 391 kts | 354° |
| 2026-04-15 08:33 | 41.76254 | -8.56735 | 18358 ft | 395 kts | 354° |
| 2026-04-15 08:34 | 41.78980 | -8.56705 | 18773 ft | 398 kts | 354° |
| 2026-04-15 08:34 | 41.81762 | -8.56671 | 19188 ft | 401 kts | 354° |
| 2026-04-15 08:34 | 41.84568 | -8.56634 | 19610 ft | 403 kts | 354° |
| 2026-04-15 08:34 | 41.87381 | -8.56592 | 20033 ft | 405 kts | 354° |
| 2026-04-15 08:35 | 41.90181 | -8.56551 | 20426 ft | 407 kts | 354° |
| 2026-04-15 08:35 | 41.93029 | -8.56514 | 20833 ft | 410 kts | 354° |
| 2026-04-15 08:35 | 41.95886 | -8.56479 | 21236 ft | 412 kts | 354° |
| 2026-04-15 08:35 | 41.98764 | -8.56443 | 21642 ft | 414 kts | 354° |
| 2026-04-15 08:36 | 42.01630 | -8.56405 | 22041 ft | 416 kts | 354° |
| 2026-04-15 08:36 | 42.04535 | -8.56368 | 22392 ft | 418 kts | 354° |
| 2026-04-15 08:36 | 42.07457 | -8.56241 | 22771 ft | 424 kts | 359° |
| 2026-04-15 08:36 | 42.10402 | -8.55785 | 23168 ft | 427 kts | 0° |
| 2026-04-15 08:37 | 42.13372 | -8.55313 | 23508 ft | 430 kts | 0° |
| 2026-04-15 08:37 | 42.16369 | -8.54837 | 23862 ft | 432 kts | 0° |
| 2026-04-15 08:37 | 42.19376 | -8.54360 | 24192 ft | 435 kts | 0° |
| 2026-04-15 08:37 | 42.22353 | -8.53888 | 24479 ft | 437 kts | 0° |
| 2026-04-15 08:38 | 42.25387 | -8.53404 | 24747 ft | 440 kts | 0° |
| 2026-04-15 08:38 | 42.28434 | -8.52916 | 25014 ft | 442 kts | 0° |
| 2026-04-15 08:38 | 42.31472 | -8.52429 | 25300 ft | 445 kts | 360° |
| 2026-04-15 08:38 | 42.34565 | -8.51932 | 25582 ft | 448 kts | 360° |
| 2026-04-15 08:39 | 42.37666 | -8.51436 | 25848 ft | 450 kts | 360° |
| 2026-04-15 08:39 | 42.40794 | -8.50932 | 26123 ft | 453 kts | 360° |
| 2026-04-15 08:39 | 42.43936 | -8.50424 | 26392 ft | 455 kts | 360° |
| 2026-04-15 08:39 | 42.47090 | -8.49835 | 26649 ft | 462 kts | 5° |
| 2026-04-15 08:40 | 42.50215 | -8.48633 | 26901 ft | 473 kts | 15° |
| 2026-04-15 08:40 | 42.53216 | -8.46686 | 27152 ft | 484 kts | 26° |
| 2026-04-15 08:40 | 42.55995 | -8.44012 | 27397 ft | 493 kts | 36° |
| 2026-04-15 08:40 | 42.58594 | -8.40937 | 27643 ft | 496 kts | 37° |
| 2026-04-15 08:41 | 42.61166 | -8.37885 | 27899 ft | 499 kts | 37° |
| 2026-04-15 08:41 | 42.63791 | -8.34776 | 28151 ft | 501 kts | 37° |
| 2026-04-15 08:41 | 42.66426 | -8.31654 | 28393 ft | 504 kts | 37° |
| 2026-04-15 08:41 | 42.69085 | -8.28500 | 28637 ft | 506 kts | 37° |
| 2026-04-15 08:42 | 42.71747 | -8.25334 | 28872 ft | 509 kts | 37° |
| 2026-04-15 08:42 | 42.74389 | -8.22186 | 29120 ft | 512 kts | 37° |
| 2026-04-15 08:42 | 42.77081 | -8.18972 | 29343 ft | 514 kts | 37° |
| 2026-04-15 08:42 | 42.79787 | -8.15737 | 29564 ft | 517 kts | 37° |
| 2026-04-15 08:43 | 42.82495 | -8.12500 | 29760 ft | 519 kts | 37° |
| 2026-04-15 08:43 | 42.85218 | -8.09241 | 29962 ft | 521 kts | 37° |
| 2026-04-15 08:43 | 42.87912 | -8.06016 | 30170 ft | 523 kts | 37° |
| 2026-04-15 08:43 | 42.90652 | -8.02733 | 30359 ft | 524 kts | 37° |
| 2026-04-15 08:44 | 42.93397 | -7.99438 | 30569 ft | 525 kts | 37° |
| 2026-04-15 08:44 | 42.96139 | -7.96144 | 30808 ft | 525 kts | 37° |
| 2026-04-15 08:44 | 42.98880 | -7.92848 | 31044 ft | 524 kts | 37° |
| 2026-04-15 08:44 | 43.01587 | -7.89586 | 31265 ft | 524 kts | 37° |
| 2026-04-15 08:45 | 43.04328 | -7.86277 | 31482 ft | 525 kts | 38° |
| 2026-04-15 08:45 | 43.07070 | -7.82961 | 31695 ft | 525 kts | 38° |
| 2026-04-15 08:45 | 43.09805 | -7.79651 | 31903 ft | 525 kts | 38° |
| 2026-04-15 08:45 | 43.12544 | -7.76334 | 32113 ft | 526 kts | 38° |
| 2026-04-15 08:46 | 43.15284 | -7.73013 | 32314 ft | 526 kts | 38° |
| 2026-04-15 08:46 | 43.18029 | -7.69683 | 32545 ft | 526 kts | 38° |
| 2026-04-15 08:46 | 43.20768 | -7.66357 | 32781 ft | 526 kts | 38° |
| 2026-04-15 08:46 | 43.23501 | -7.63032 | 32987 ft | 526 kts | 38° |
| 2026-04-15 08:47 | 43.26200 | -7.59738 | 33170 ft | 526 kts | 38° |
| 2026-04-15 08:47 | 43.28946 | -7.56383 | 33339 ft | 527 kts | 38° |
| 2026-04-15 08:47 | 43.31693 | -7.53023 | 33519 ft | 527 kts | 38° |
| 2026-04-15 08:47 | 43.34438 | -7.49662 | 33713 ft | 528 kts | 38° |
| 2026-04-15 08:48 | 43.37151 | -7.46341 | 33887 ft | 528 kts | 38° |
| 2026-04-15 08:48 | 43.39895 | -7.42978 | 34123 ft | 529 kts | 38° |
| 2026-04-15 08:48 | 43.42644 | -7.39608 | 34221 ft | 527 kts | 38° |
| 2026-04-15 08:49 | 43.48104 | -7.32895 | 34237 ft | 525 kts | 38° |
| 2026-04-15 08:49 | 43.53559 | -7.26175 | 34215 ft | 524 kts | 38° |
| 2026-04-15 08:50 | 43.58966 | -7.19486 | 34216 ft | 524 kts | 39° |
| 2026-04-15 08:50 | 43.64399 | -7.12742 | 34207 ft | 524 kts | 39° |
| 2026-04-15 08:51 | 43.69830 | -7.05981 | 34219 ft | 525 kts | 38° |
| 2026-04-15 08:51 | 43.75241 | -6.99251 | 34226 ft | 525 kts | 38° |
| 2026-04-15 08:52 | 43.80673 | -6.92476 | 34239 ft | 526 kts | 39° |
| 2026-04-15 08:52 | 43.86102 | -6.85673 | 34252 ft | 526 kts | 39° |
| 2026-04-15 08:53 | 43.91535 | -6.78848 | 34236 ft | 525 kts | 39° |
| 2026-04-15 08:53 | 43.96915 | -6.72071 | 34239 ft | 526 kts | 39° |
| 2026-04-15 08:54 | 44.02341 | -6.65225 | 34245 ft | 526 kts | 39° |
| 2026-04-15 08:54 | 44.07758 | -6.58366 | 34234 ft | 524 kts | 39° |
| 2026-04-15 08:55 | 44.13126 | -6.51548 | 34238 ft | 524 kts | 39° |
| 2026-04-15 08:55 | 44.18531 | -6.44680 | 34213 ft | 525 kts | 40° |
| 2026-04-15 08:56 | 44.23892 | -6.37856 | 34229 ft | 525 kts | 40° |
| 2026-04-15 08:56 | 44.29293 | -6.30959 | 34249 ft | 526 kts | 40° |
| 2026-04-15 08:57 | 44.34694 | -6.24034 | 34248 ft | 526 kts | 40° |
| 2026-04-15 08:57 | 44.40088 | -6.17103 | 34247 ft | 526 kts | 40° |
| 2026-04-15 08:58 | 44.45452 | -6.10194 | 34280 ft | 526 kts | 40° |
| 2026-04-15 08:58 | 44.53476 | -5.99807 | 34196 ft | 523 kts | 40° |
| 2026-04-15 08:59 | 44.58829 | -5.92859 | 34209 ft | 524 kts | 40° |
| 2026-04-15 08:59 | 44.64164 | -5.85922 | 34216 ft | 525 kts | 40° |
| 2026-04-15 09:00 | 44.69501 | -5.78876 | 34228 ft | 526 kts | 42° |
| 2026-04-15 09:00 | 44.74724 | -5.71698 | 34234 ft | 527 kts | 43° |
| 2026-04-15 09:01 | 44.79940 | -5.64440 | 34246 ft | 527 kts | 43° |
| 2026-04-15 09:01 | 44.85144 | -5.57243 | 34253 ft | 527 kts | 42° |
| 2026-04-15 09:02 | 44.90400 | -5.50012 | 34225 ft | 526 kts | 42° |
| 2026-04-15 09:02 | 44.94758 | -5.44005 | 34233 ft | 526 kts | 43° |
| 2026-04-15 09:03 | 44.99996 | -5.36745 | 34232 ft | 527 kts | 43° |
| 2026-04-15 09:03 | 45.05230 | -5.29459 | 34293 ft | 528 kts | 43° |
| 2026-04-15 09:04 | 45.07815 | -5.25861 | 34494 ft | 528 kts | 43° |
| 2026-04-15 09:04 | 45.10439 | -5.22202 | 34652 ft | 529 kts | 43° |
| 2026-04-15 09:04 | 45.13066 | -5.18530 | 34823 ft | 529 kts | 43° |
| 2026-04-15 09:04 | 45.15690 | -5.14859 | 35006 ft | 529 kts | 43° |
| 2026-04-15 09:05 | 45.18315 | -5.11182 | 35198 ft | 529 kts | 43° |
| 2026-04-15 09:05 | 45.20904 | -5.07551 | 35385 ft | 528 kts | 43° |
| 2026-04-15 09:05 | 45.23515 | -5.03876 | 35572 ft | 528 kts | 43° |
| 2026-04-15 09:05 | 45.26121 | -5.00204 | 35735 ft | 527 kts | 43° |
| 2026-04-15 09:06 | 45.28728 | -4.96529 | 36005 ft | 526 kts | 43° |
| 2026-04-15 09:06 | 45.31329 | -4.92856 | 36174 ft | 526 kts | 43° |
| 2026-04-15 09:06 | 45.36489 | -4.85562 | 36211 ft | 526 kts | 43° |
| 2026-04-15 09:07 | 45.41698 | -4.78188 | 36215 ft | 526 kts | 43° |
| 2026-04-15 09:07 | 45.46853 | -4.70852 | 36212 ft | 526 kts | 43° |
| 2026-04-15 09:08 | 45.52038 | -4.63461 | 36214 ft | 526 kts | 43° |
| 2026-04-15 09:08 | 45.57215 | -4.56073 | 36221 ft | 525 kts | 43° |
| 2026-04-15 09:09 | 45.62388 | -4.48651 | 36228 ft | 526 kts | 43° |
| 2026-04-15 09:09 | 45.67522 | -4.41267 | 36232 ft | 526 kts | 43° |
| 2026-04-15 09:10 | 45.72695 | -4.33824 | 36247 ft | 527 kts | 43° |
| 2026-04-15 09:10 | 45.77866 | -4.26357 | 36235 ft | 527 kts | 43° |
| 2026-04-15 09:11 | 45.83000 | -4.18927 | 36233 ft | 527 kts | 43° |
| 2026-04-15 09:11 | 45.88166 | -4.11417 | 36232 ft | 527 kts | 43° |
| 2026-04-15 09:12 | 45.93299 | -4.03938 | 36204 ft | 526 kts | 44° |
| 2026-04-15 09:12 | 45.98438 | -3.96425 | 36195 ft | 526 kts | 44° |
| 2026-04-15 09:13 | 46.03573 | -3.88902 | 36206 ft | 526 kts | 44° |
| 2026-04-15 09:13 | 46.08669 | -3.81411 | 36221 ft | 526 kts | 44° |
| 2026-04-15 09:14 | 46.13800 | -3.73842 | 36237 ft | 527 kts | 44° |
| 2026-04-15 09:14 | 46.18891 | -3.66298 | 36235 ft | 527 kts | 44° |
| 2026-04-15 09:15 | 46.24013 | -3.58721 | 36191 ft | 527 kts | 44° |
| 2026-04-15 09:15 | 46.29121 | -3.51123 | 36223 ft | 526 kts | 44° |
| 2026-04-15 09:16 | 46.34181 | -3.43567 | 36219 ft | 524 kts | 45° |
| 2026-04-15 09:16 | 46.39256 | -3.35982 | 36217 ft | 523 kts | 44° |
| 2026-04-15 09:17 | 46.44339 | -3.28392 | 36139 ft | 522 kts | 44° |
| 2026-04-15 09:17 | 46.46877 | -3.24588 | 35295 ft | 527 kts | 45° |
| 2026-04-15 09:17 | 46.49402 | -3.20784 | 34573 ft | 529 kts | 45° |
| 2026-04-15 09:18 | 46.51964 | -3.16908 | 34318 ft | 531 kts | 46° |
| 2026-04-15 09:18 | 46.54525 | -3.13028 | 34142 ft | 533 kts | 46° |
| 2026-04-15 09:18 | 46.58945 | -3.04506 | 34204 ft | 530 kts | 63° |
| 2026-04-15 09:19 | 46.62604 | -2.95159 | 34201 ft | 531 kts | 62° |
| 2026-04-15 09:19 | 46.66328 | -2.85867 | 34206 ft | 531 kts | 61° |
| 2026-04-15 09:20 | 46.70050 | -2.76633 | 34201 ft | 529 kts | 61° |
| 2026-04-15 09:20 | 46.73741 | -2.67392 | 34205 ft | 529 kts | 62° |
| 2026-04-15 09:21 | 46.77429 | -2.58083 | 34203 ft | 529 kts | 62° |
| 2026-04-15 09:21 | 46.81088 | -2.48818 | 34198 ft | 529 kts | 62° |
| 2026-04-15 09:22 | 46.84748 | -2.39519 | 34198 ft | 526 kts | 61° |
| 2026-04-15 09:22 | 46.88445 | -2.30269 | 34198 ft | 525 kts | 60° |
| 2026-04-15 09:23 | 46.92285 | -2.21233 | 34196 ft | 525 kts | 58° |
| 2026-04-15 09:23 | 46.96188 | -2.12166 | 34198 ft | 526 kts | 59° |
| 2026-04-15 09:24 | 47.00147 | -2.03221 | 34162 ft | 526 kts | 51° |
| 2026-04-15 09:24 | 47.02648 | -1.99342 | 34194 ft | 522 kts | 39° |
| 2026-04-15 09:24 | 47.05501 | -1.96047 | 34191 ft | 520 kts | 35° |
| 2026-04-15 09:25 | 47.11291 | -1.89669 | 34191 ft | 519 kts | 35° |
| 2026-04-15 09:25 | 47.17037 | -1.83334 | 34213 ft | 520 kts | 35° |
| 2026-04-15 09:26 | 47.22859 | -1.76917 | 34199 ft | 522 kts | 35° |
| 2026-04-15 09:26 | 47.28677 | -1.70490 | 34189 ft | 523 kts | 35° |
| 2026-04-15 09:27 | 47.34341 | -1.63881 | 34176 ft | 522 kts | 43° |
| 2026-04-15 09:27 | 47.39018 | -1.55691 | 34195 ft | 521 kts | 52° |
| 2026-04-15 09:28 | 47.43486 | -1.47227 | 34253 ft | 522 kts | 52° |
| 2026-04-15 09:28 | 47.45685 | -1.43063 | 34416 ft | 521 kts | 52° |
| 2026-04-15 09:28 | 47.47924 | -1.38827 | 34575 ft | 521 kts | 52° |
| 2026-04-15 09:29 | 47.50161 | -1.34589 | 34721 ft | 520 kts | 52° |
| 2026-04-15 09:29 | 47.52388 | -1.30362 | 34870 ft | 520 kts | 52° |
| 2026-04-15 09:29 | 47.54585 | -1.26184 | 35014 ft | 520 kts | 52° |
| 2026-04-15 09:29 | 47.56802 | -1.21956 | 35223 ft | 518 kts | 51° |
| 2026-04-15 09:30 | 47.59000 | -1.17755 | 35498 ft | 516 kts | 52° |
| 2026-04-15 09:30 | 47.61206 | -1.13536 | 35643 ft | 515 kts | 52° |
| 2026-04-15 09:30 | 47.63403 | -1.09329 | 35784 ft | 515 kts | 52° |
| 2026-04-15 09:30 | 47.65593 | -1.05128 | 35925 ft | 515 kts | 52° |
| 2026-04-15 09:31 | 47.67779 | -1.00926 | 36082 ft | 514 kts | 52° |
| 2026-04-15 09:31 | 47.69969 | -0.96715 | 36165 ft | 515 kts | 52° |
| 2026-04-15 09:31 | 47.74345 | -0.88274 | 36174 ft | 515 kts | 52° |
| 2026-04-15 09:32 | 47.78693 | -0.79855 | 36182 ft | 512 kts | 52° |
| 2026-04-15 09:32 | 47.82998 | -0.71494 | 36166 ft | 510 kts | 52° |
| 2026-04-15 09:33 | 47.87316 | -0.63091 | 36168 ft | 510 kts | 52° |
| 2026-04-15 09:33 | 47.91637 | -0.54647 | 36175 ft | 511 kts | 52° |
| 2026-04-15 09:34 | 47.95945 | -0.46199 | 36187 ft | 512 kts | 52° |
| 2026-04-15 09:34 | 48.00234 | -0.37775 | 36185 ft | 512 kts | 52° |
| 2026-04-15 09:35 | 48.04544 | -0.29276 | 36196 ft | 512 kts | 52° |
| 2026-04-15 09:35 | 48.08240 | -0.20186 | 36188 ft | 511 kts | 66° |
| 2026-04-15 09:36 | 48.11224 | -0.10593 | 36185 ft | 512 kts | 66° |
| 2026-04-15 09:36 | 48.14259 | -0.00927 | 36178 ft | 512 kts | 66° |
| 2026-04-15 09:37 | 48.17272 | 0.08679 | 36206 ft | 511 kts | 65° |
| 2026-04-15 09:37 | 48.20273 | 0.18324 | 36208 ft | 509 kts | 65° |
| 2026-04-15 09:38 | 48.23260 | 0.27976 | 36217 ft | 509 kts | 66° |
| 2026-04-15 09:38 | 48.26224 | 0.37623 | 36206 ft | 508 kts | 66° |
| 2026-04-15 09:39 | 48.29175 | 0.47212 | 36194 ft | 508 kts | 65° |
| 2026-04-15 09:39 | 48.32135 | 0.56865 | 36217 ft | 506 kts | 65° |
| 2026-04-15 09:40 | 48.35059 | 0.66462 | 36215 ft | 505 kts | 65° |
| 2026-04-15 09:40 | 48.37980 | 0.76093 | 36216 ft | 505 kts | 65° |
| 2026-04-15 09:41 | 48.40877 | 0.85654 | 36211 ft | 504 kts | 66° |
| 2026-04-15 09:41 | 48.43774 | 0.95282 | 36224 ft | 504 kts | 65° |
| 2026-04-15 09:42 | 48.46674 | 1.04907 | 36221 ft | 503 kts | 65° |
| 2026-04-15 09:42 | 48.49540 | 1.14460 | 36217 ft | 503 kts | 66° |
| 2026-04-15 09:43 | 48.52404 | 1.24100 | 36220 ft | 503 kts | 66° |
| 2026-04-15 09:43 | 48.55244 | 1.33705 | 36215 ft | 503 kts | 65° |
| 2026-04-15 09:44 | 48.58095 | 1.43352 | 36216 ft | 501 kts | 65° |
| 2026-04-15 09:44 | 48.60938 | 1.52977 | 36215 ft | 500 kts | 65° |
| 2026-04-15 09:45 | 48.63743 | 1.62545 | 36217 ft | 500 kts | 66° |
| 2026-04-15 09:45 | 48.66400 | 1.72288 | 36225 ft | 500 kts | 69° |
| 2026-04-15 09:46 | 48.68727 | 1.82150 | 36221 ft | 499 kts | 70° |
| 2026-04-15 09:46 | 48.71002 | 1.92070 | 36245 ft | 498 kts | 70° |
| 2026-04-15 09:47 | 48.73348 | 2.01955 | 36248 ft | 498 kts | 69° |
| 2026-04-15 09:47 | 48.75699 | 2.11773 | 36250 ft | 498 kts | 71° |
| 2026-04-15 09:48 | 48.77684 | 2.21819 | 36242 ft | 497 kts | 75° |
| 2026-04-15 09:48 | 48.79367 | 2.31927 | 36250 ft | 496 kts | 75° |
| 2026-04-15 09:49 | 48.81076 | 2.42090 | 36252 ft | 495 kts | 75° |
| 2026-04-15 09:49 | 48.82870 | 2.52194 | 36244 ft | 495 kts | 74° |
| 2026-04-15 09:50 | 48.84688 | 2.62283 | 36242 ft | 494 kts | 74° |
| 2026-04-15 09:50 | 48.86467 | 2.72324 | 36245 ft | 493 kts | 74° |
| 2026-04-15 09:51 | 48.87929 | 2.80702 | 36245 ft | 492 kts | 74° |
| 2026-04-15 09:51 | 48.89957 | 2.92387 | 36235 ft | 491 kts | 74° |
| 2026-04-15 09:52 | 48.91403 | 3.00729 | 36233 ft | 490 kts | 74° |
| 2026-04-15 09:52 | 48.93132 | 3.10762 | 36239 ft | 490 kts | 74° |
| 2026-04-15 09:53 | 48.94852 | 3.20804 | 36242 ft | 489 kts | 74° |
| 2026-04-15 09:53 | 48.96551 | 3.30762 | 36240 ft | 488 kts | 74° |
| 2026-04-15 09:54 | 48.98235 | 3.40765 | 36238 ft | 487 kts | 74° |
| 2026-04-15 09:54 | 48.99915 | 3.50774 | 36236 ft | 487 kts | 74° |
| 2026-04-15 09:55 | 49.01576 | 3.60714 | 36245 ft | 486 kts | 73° |
| 2026-04-15 09:55 | 49.03238 | 3.70694 | 36249 ft | 486 kts | 74° |
| 2026-04-15 09:56 | 49.04068 | 3.75688 | 36141 ft | 483 kts | 73° |
| 2026-04-15 09:56 | 49.04892 | 3.80661 | 35527 ft | 481 kts | 74° |
| 2026-04-15 09:56 | 49.06504 | 3.90486 | 35199 ft | 482 kts | 74° |
| 2026-04-15 09:57 | 49.07319 | 3.95478 | 35221 ft | 484 kts | 74° |
| 2026-04-15 09:57 | 49.08947 | 4.05483 | 35220 ft | 485 kts | 74° |
| 2026-04-15 09:58 | 49.10560 | 4.15439 | 35220 ft | 485 kts | 74° |
| 2026-04-15 09:58 | 49.12174 | 4.25467 | 35220 ft | 486 kts | 74° |
| 2026-04-15 09:59 | 49.13815 | 4.35474 | 35219 ft | 485 kts | 70° |
| 2026-04-15 09:59 | 49.16261 | 4.44916 | 35222 ft | 475 kts | 64° |
| 2026-04-15 10:00 | 49.18790 | 4.54227 | 35220 ft | 472 kts | 65° |
| 2026-04-15 10:00 | 49.21304 | 4.63524 | 35238 ft | 473 kts | 65° |
| 2026-04-15 10:01 | 49.23797 | 4.72774 | 35222 ft | 472 kts | 65° |
| 2026-04-15 10:01 | 49.26304 | 4.82107 | 35229 ft | 474 kts | 65° |
| 2026-04-15 10:02 | 49.28794 | 4.91426 | 35231 ft | 473 kts | 65° |
| 2026-04-15 10:02 | 49.31272 | 5.00746 | 35225 ft | 469 kts | 65° |
| 2026-04-15 10:03 | 49.33717 | 5.09998 | 35235 ft | 471 kts | 65° |
| 2026-04-15 10:03 | 49.36172 | 5.19304 | 35226 ft | 469 kts | 65° |
| 2026-04-15 10:04 | 49.38605 | 5.28561 | 35235 ft | 469 kts | 65° |
| 2026-04-15 10:04 | 49.41037 | 5.37870 | 35239 ft | 468 kts | 65° |
| 2026-04-15 10:05 | 49.43443 | 5.47116 | 35234 ft | 465 kts | 65° |
| 2026-04-15 10:05 | 49.45846 | 5.56357 | 35233 ft | 465 kts | 65° |
| 2026-04-15 10:06 | 49.48223 | 5.65568 | 35235 ft | 465 kts | 65° |
| 2026-04-15 10:06 | 49.50595 | 5.74790 | 35244 ft | 465 kts | 65° |
| 2026-04-15 10:07 | 49.52951 | 5.84110 | 35236 ft | 468 kts | 66° |
| 2026-04-15 10:07 | 49.55236 | 5.93525 | 35243 ft | 469 kts | 66° |
| 2026-04-15 10:08 | 49.57455 | 6.02606 | 35251 ft | 470 kts | 65° |
| 2026-04-15 10:08 | 49.59762 | 6.11974 | 35269 ft | 471 kts | 65° |
| 2026-04-15 10:09 | 49.62084 | 6.21438 | 35266 ft | 471 kts | 66° |
| 2026-04-15 10:09 | 49.64648 | 6.30572 | 35265 ft | 466 kts | 55° |
| 2026-04-15 10:10 | 49.67978 | 6.39163 | 35274 ft | 465 kts | 55° |
| 2026-04-15 10:10 | 49.71275 | 6.47763 | 35268 ft | 465 kts | 55° |
| 2026-04-15 10:11 | 49.74467 | 6.56344 | 35046 ft | 458 kts | 57° |
| 2026-04-15 10:11 | 49.75937 | 6.60669 | 34805 ft | 448 kts | 59° |
| 2026-04-15 10:11 | 49.77326 | 6.64933 | 34644 ft | 437 kts | 59° |
| 2026-04-15 10:11 | 49.78672 | 6.69114 | 34257 ft | 432 kts | 59° |
| 2026-04-15 10:12 | 49.80013 | 6.73259 | 33745 ft | 429 kts | 59° |
| 2026-04-15 10:12 | 49.81338 | 6.77319 | 33251 ft | 425 kts | 59° |
| 2026-04-15 10:12 | 49.82682 | 6.81386 | 32763 ft | 422 kts | 58° |
| 2026-04-15 10:12 | 49.84024 | 6.85415 | 32314 ft | 417 kts | 58° |
| 2026-04-15 10:13 | 49.85352 | 6.89391 | 31846 ft | 413 kts | 58° |
| 2026-04-15 10:13 | 49.86671 | 6.93346 | 31385 ft | 410 kts | 58° |
| 2026-04-15 10:13 | 49.87957 | 6.97211 | 30926 ft | 407 kts | 59° |
| 2026-04-15 10:13 | 49.89248 | 7.01114 | 30460 ft | 405 kts | 59° |
| 2026-04-15 10:14 | 49.90527 | 7.04993 | 29955 ft | 402 kts | 59° |
| 2026-04-15 10:14 | 49.91797 | 7.08857 | 29438 ft | 399 kts | 59° |
| 2026-04-15 10:14 | 49.93038 | 7.12640 | 28974 ft | 396 kts | 59° |
| 2026-04-15 10:14 | 49.94283 | 7.16438 | 28485 ft | 393 kts | 60° |
| 2026-04-15 10:15 | 49.95517 | 7.20213 | 28002 ft | 390 kts | 60° |
| 2026-04-15 10:15 | 49.96740 | 7.23957 | 27534 ft | 387 kts | 60° |
| 2026-04-15 10:15 | 49.97954 | 7.27675 | 27059 ft | 384 kts | 60° |
| 2026-04-15 10:15 | 49.99159 | 7.31370 | 26603 ft | 382 kts | 60° |
| 2026-04-15 10:16 | 50.00353 | 7.35034 | 26174 ft | 378 kts | 60° |
| 2026-04-15 10:16 | 50.01536 | 7.38665 | 25589 ft | 374 kts | 60° |
| 2026-04-15 10:16 | 50.02705 | 7.42262 | 24926 ft | 370 kts | 61° |
| 2026-04-15 10:16 | 50.03859 | 7.45822 | 24281 ft | 367 kts | 61° |
| 2026-04-15 10:17 | 50.04990 | 7.49319 | 23612 ft | 364 kts | 62° |
| 2026-04-15 10:17 | 50.06124 | 7.52828 | 22866 ft | 360 kts | 62° |
| 2026-04-15 10:17 | 50.07248 | 7.56310 | 22148 ft | 357 kts | 62° |
| 2026-04-15 10:17 | 50.08343 | 7.59711 | 21472 ft | 353 kts | 62° |
| 2026-04-15 10:18 | 50.09293 | 7.63232 | 20783 ft | 352 kts | 71° |
| 2026-04-15 10:18 | 50.09877 | 7.66971 | 19719 ft | 360 kts | 81° |
| 2026-04-15 10:18 | 50.10049 | 7.70939 | 18556 ft | 373 kts | 91° |
| 2026-04-15 10:18 | 50.09760 | 7.74874 | 17980 ft | 363 kts | 102° |
| 2026-04-15 10:19 | 50.09130 | 7.78579 | 17681 ft | 345 kts | 107° |
| 2026-04-15 10:19 | 50.08630 | 7.82183 | 17140 ft | 336 kts | 96° |
| 2026-04-15 10:19 | 50.08530 | 7.85804 | 16411 ft | 334 kts | 86° |
| 2026-04-15 10:19 | 50.08832 | 7.89420 | 15485 ft | 339 kts | 76° |
| 2026-04-15 10:20 | 50.09534 | 7.92936 | 14582 ft | 342 kts | 68° |
| 2026-04-15 10:20 | 50.10391 | 7.96370 | 13665 ft | 345 kts | 68° |
| 2026-04-15 10:20 | 50.11253 | 7.99876 | 12697 ft | 346 kts | 69° |
| 2026-04-15 10:20 | 50.12109 | 8.03390 | 11792 ft | 346 kts | 69° |
| 2026-04-15 10:21 | 50.12943 | 8.06828 | 11424 ft | 329 kts | 69° |
| 2026-04-15 10:21 | 50.13731 | 8.10074 | 11283 ft | 312 kts | 69° |
| 2026-04-15 10:21 | 50.14483 | 8.13171 | 11272 ft | 302 kts | 69° |
| 2026-04-15 10:21 | 50.15219 | 8.16200 | 11272 ft | 303 kts | 69° |
| 2026-04-15 10:22 | 50.15964 | 8.19279 | 11279 ft | 302 kts | 69° |
| 2026-04-15 10:22 | 50.16704 | 8.22349 | 11274 ft | 303 kts | 70° |
| 2026-04-15 10:22 | 50.17449 | 8.25443 | 11273 ft | 303 kts | 70° |
| 2026-04-15 10:22 | 50.18179 | 8.28481 | 11271 ft | 302 kts | 69° |
| 2026-04-15 10:23 | 50.18919 | 8.31559 | 11272 ft | 302 kts | 69° |
| 2026-04-15 10:23 | 50.19408 | 8.34746 | 11269 ft | 301 kts | 90° |
| 2026-04-15 10:23 | 50.18967 | 8.37856 | 11276 ft | 298 kts | 118° |
| 2026-04-15 10:23 | 50.17661 | 8.40328 | 11158 ft | 296 kts | 146° |
| 2026-04-15 10:24 | 50.15825 | 8.41697 | 10919 ft | 292 kts | 161° |
| 2026-04-15 10:24 | 50.13864 | 8.42426 | 10670 ft | 289 kts | 181° |
| 2026-04-15 10:24 | 50.11950 | 8.41787 | 10433 ft | 285 kts | 207° |
| 2026-04-15 10:24 | 50.10423 | 8.39868 | 10193 ft | 284 kts | 234° |
| 2026-04-15 10:25 | 50.09546 | 8.37109 | 9934 ft | 285 kts | 249° |
| 2026-04-15 10:25 | 50.08850 | 8.34217 | 9667 ft | 284 kts | 249° |
| 2026-04-15 10:25 | 50.08162 | 8.31345 | 9404 ft | 283 kts | 249° |
| 2026-04-15 10:25 | 50.07481 | 8.28514 | 9144 ft | 281 kts | 249° |
| 2026-04-15 10:26 | 50.06786 | 8.25644 | 8682 ft | 284 kts | 249° |
| 2026-04-15 10:26 | 50.06083 | 8.22756 | 8175 ft | 286 kts | 249° |
| 2026-04-15 10:26 | 50.05368 | 8.19836 | 7662 ft | 288 kts | 248° |
| 2026-04-15 10:26 | 50.04648 | 8.16902 | 7163 ft | 290 kts | 248° |
| 2026-04-15 10:27 | 50.03939 | 8.14006 | 6687 ft | 291 kts | 248° |
| 2026-04-15 10:27 | 50.03207 | 8.11011 | 6153 ft | 293 kts | 248° |
| 2026-04-15 10:27 | 50.02502 | 8.08111 | 5742 ft | 286 kts | 248° |
| 2026-04-15 10:27 | 50.01816 | 8.05283 | 5483 ft | 273 kts | 248° |
| 2026-04-15 10:28 | 50.01157 | 8.02580 | 5221 ft | 262 kts | 248° |
| 2026-04-15 10:28 | 50.00519 | 7.99972 | 5045 ft | 252 kts | 248° |
| 2026-04-15 10:28 | 49.99891 | 7.97496 | 4996 ft | 240 kts | 241° |
| 2026-04-15 10:28 | 49.98813 | 7.95588 | 5012 ft | 234 kts | 209° |
| 2026-04-15 10:29 | 49.97279 | 7.94875 | 5007 ft | 231 kts | 179° |
| 2026-04-15 10:29 | 49.95774 | 7.95510 | 5006 ft | 228 kts | 146° |
| 2026-04-15 10:29 | 49.94567 | 7.97098 | 4998 ft | 227 kts | 134° |
| 2026-04-15 10:29 | 49.93695 | 7.99123 | 5002 ft | 226 kts | 116° |
| 2026-04-15 10:30 | 49.93043 | 8.01348 | 5008 ft | 226 kts | 110° |
| 2026-04-15 10:30 | 49.92793 | 8.03746 | 5005 ft | 227 kts | 88° |
| 2026-04-15 10:30 | 49.93132 | 8.06103 | 5006 ft | 228 kts | 70° |
| 2026-04-15 10:30 | 49.93697 | 8.08399 | 5005 ft | 221 kts | 70° |
| 2026-04-15 10:31 | 49.94226 | 8.10542 | 5001 ft | 202 kts | 70° |
| 2026-04-15 10:31 | 49.94707 | 8.12512 | 5018 ft | 189 kts | 70° |
| 2026-04-15 10:31 | 49.95170 | 8.14411 | 5006 ft | 187 kts | 71° |
| 2026-04-15 10:31 | 49.95629 | 8.16298 | 5009 ft | 187 kts | 71° |
| 2026-04-15 10:32 | 49.96083 | 8.18163 | 4856 ft | 186 kts | 70° |
| 2026-04-15 10:32 | 49.96540 | 8.20040 | 4620 ft | 185 kts | 70° |
| 2026-04-15 10:32 | 49.96994 | 8.21908 | 4364 ft | 184 kts | 70° |
| 2026-04-15 10:32 | 49.97445 | 8.23763 | 4097 ft | 182 kts | 70° |
| 2026-04-15 10:33 | 49.97890 | 8.25598 | 3838 ft | 181 kts | 70° |
| 2026-04-15 10:33 | 49.98333 | 8.27426 | 3573 ft | 180 kts | 70° |
| 2026-04-15 10:33 | 49.98773 | 8.29241 | 3323 ft | 180 kts | 70° |
| 2026-04-15 10:33 | 49.99213 | 8.31060 | 3057 ft | 179 kts | 70° |
| 2026-04-15 10:34 | 49.99645 | 8.32844 | 2802 ft | 178 kts | 70° |
| 2026-04-15 10:34 | 50.00075 | 8.34625 | 2536 ft | 173 kts | 70° |
| 2026-04-15 10:34 | 50.00488 | 8.36336 | 2296 ft | 165 kts | 70° |
| 2026-04-15 10:34 | 50.00877 | 8.37948 | 2063 ft | 152 kts | 70° |
| 2026-04-15 10:35 | 50.01236 | 8.39438 | 1844 ft | 143 kts | 70° |
| 2026-04-15 10:35 | 50.01579 | 8.40863 | 1647 ft | 140 kts | 70° |
| 2026-04-15 10:35 | 50.01925 | 8.42296 | 1446 ft | 140 kts | 70° |
| 2026-04-15 10:35 | 50.02268 | 8.43714 | 1188 ft | 140 kts | 70° |
| 2026-04-15 10:36 | 50.02606 | 8.45114 | 1011 ft | 137 kts | 69° |
| 2026-04-15 10:36 | 50.02940 | 8.46497 | 840 ft | 135 kts | 70° |
| 2026-04-15 10:36 | 50.03268 | 8.47876 | 642 ft | 135 kts | 69° |
| 2026-04-15 10:36 | 50.03599 | 8.49256 | 422 ft | 137 kts | 69° |
| 2026-04-15 10:37 | 50.03931 | 8.50634 | 326 ft | 129 kts | 70° |
| 2026-04-15 10:37 | 50.04196 | 8.51758 | 335 ft | 94 kts | 69° |
| 2026-04-15 10:37 | 50.04354 | 8.52413 | 343 ft | 37 kts | 70° |
| 2026-04-15 10:37 | 50.04396 | 8.52725 | 354 ft | 26 kts | 90° |
| 2026-04-15 10:38 | 50.04375 | 8.52992 | 354 ft | 24 kts | 99° |
| 2026-04-15 10:38 | 50.04352 | 8.53225 | 361 ft | 19 kts | 92° |
| 2026-04-15 10:38 | 50.04374 | 8.53395 | 374 ft | 14 kts | 71° |
| 2026-04-15 10:38 | 50.04395 | 8.53518 | 375 ft | 11 kts | 81° |
| 2026-04-15 10:39 | 50.04403 | 8.53637 | 375 ft | 12 kts | 84° |
| 2026-04-15 10:39 | 50.04413 | 8.53775 | 375 ft | 14 kts | 84° |
| 2026-04-15 10:39 | 50.04423 | 8.53931 | 375 ft | 15 kts | 84° |
| 2026-04-15 10:39 | 50.04435 | 8.54105 | 375 ft | 17 kts | 84° |
| 2026-04-15 10:40 | 50.04447 | 8.54294 | 375 ft | 19 kts | 84° |
| 2026-04-15 10:40 | 50.04446 | 8.54521 | 367 ft | 24 kts | 103° |
| 2026-04-15 10:40 | 50.04343 | 8.54744 | 359 ft | 28 kts | 145° |
| 2026-04-15 10:40 | 50.04255 | 8.54805 | 362 ft | 21 kts | 159° |
| 2026-04-15 10:41 | 50.04084 | 8.54901 | 354 ft | 17 kts | 160° |
| 2026-04-15 10:41 | 50.04019 | 8.55000 | 356 ft | 13 kts | 89° |
| 2026-04-15 10:41 | 50.04049 | 8.55144 | 355 ft | 15 kts | 69° |
| 2026-04-15 10:41 | 50.04074 | 8.55247 | 360 ft | 16 kts | 69° |
| 2026-04-15 10:42 | 50.04116 | 8.55421 | 359 ft | 18 kts | 70° |
| 2026-04-15 10:42 | 50.04178 | 8.55679 | 357 ft | 19 kts | 71° |
| 2026-04-15 10:42 | 50.04205 | 8.55795 | 357 ft | 15 kts | 70° |
| 2026-04-15 10:42 | 50.04185 | 8.55916 | 359 ft | 12 kts | 150° |
| 2026-04-15 10:43 | 50.04110 | 8.55961 | 352 ft | 11 kts | 160° |
| 2026-04-15 10:43 | 50.04073 | 8.56036 | 356 ft | 8 kts | 89° |
| 2026-04-15 10:43 | 50.04087 | 8.56113 | 355 ft | 8 kts | 70° |
| 2026-04-15 10:43 | 50.04120 | 8.56249 | 360 ft | 18 kts | 70° |
| 2026-04-15 10:44 | 50.04171 | 8.56464 | 362 ft | 22 kts | 69° |
| 2026-04-15 10:44 | 50.04219 | 8.56669 | 363 ft | 18 kts | 70° |
| 2026-04-15 10:44 | 50.04259 | 8.56828 | 363 ft | 14 kts | 69° |
| 2026-04-15 10:44 | 50.04289 | 8.56956 | 361 ft | 12 kts | 70° |
| 2026-04-15 10:45 | 50.04320 | 8.57089 | 367 ft | 16 kts | 69° |
| 2026-04-15 10:45 | 50.04366 | 8.57282 | 362 ft | 21 kts | 69° |
| 2026-04-15 10:45 | 50.04413 | 8.57478 | 365 ft | 18 kts | 68° |
| 2026-04-15 10:45 | 50.04451 | 8.57637 | 365 ft | 14 kts | 69° |
| 2026-04-15 10:46 | 50.04486 | 8.57785 | 367 ft | 17 kts | 69° |
| 2026-04-15 10:46 | 50.04531 | 8.57973 | 367 ft | 20 kts | 70° |
| 2026-04-15 10:46 | 50.04585 | 8.58200 | 367 ft | 23 kts | 70° |
| 2026-04-15 10:46 | 50.04634 | 8.58404 | 370 ft | 19 kts | 70° |
| 2026-04-15 10:47 | 50.04677 | 8.58584 | 371 ft | 17 kts | 69° |
| 2026-04-15 10:47 | 50.04718 | 8.58741 | 372 ft | 11 kts | 66° |
| 2026-04-15 10:47 | 50.04743 | 8.58838 | 372 ft | 8 kts | 69° |
| 2026-04-15 10:47 | 50.04778 | 8.58868 | 367 ft | 6 kts | 347° |
| 2026-04-15 10:48 | 50.04804 | 8.58853 | 369 ft | 4 kts | 338° |
| 2026-04-15 10:48 | 50.04826 | 8.58840 | 367 ft | 3 kts | 339° |
| 2026-04-15 10:48 | 50.04830 | 8.58837 | 366 ft | 0 kts | 339° |